Time;durP1;ratioP1;P1;durP2;ratioP2;P2;SDS_P1;SDS_P2;PMS_P1;PMS_P2;Temp;Humidity;BMP_temperature;BMP_pressure;BME280_temperature;BME280_humidity;BME280_pressure;Samples;Min_cycle;Max_cycle;Signal;HPM_P1;HPM_P2
2021/09/10 00:00:49;;;;;;;11.55;10.5;;;;;;;15.39;75.39648;95171.28;;;;
2021/09/10 00:01:50;;;;;;;11.55;10.5;;;;;;;15.39;75.39648;95171.28;;;;
2021/09/10 00:02:50;;;;;;;11.55;10.5;;;;;;;15.39;75.39648;95171.28;;;;
2021/09/10 00:03:51;;;;;;;12;10.85;;;;;;;15.14;75.87305;95168.9;;;;
2021/09/10 00:04:51;;;;;;;12;10.85;;;;;;;15.14;75.87305;95168.9;;;;
2021/09/10 00:05:52;;;;;;;12;10.85;;;;;;;15.14;75.87305;95168.9;;;;
2021/09/10 00:06:52;;;;;;;12;10.85;;;;;;;15.14;75.87305;95168.9;;;;
2021/09/10 00:07:53;;;;;;;12;10.85;;;;;;;15.14;75.87305;95168.9;;;;
2021/09/10 00:08:53;;;;;;;12;10.85;;;;;;;15.14;75.87305;95168.9;;;;
2021/09/10 00:09:54;;;;;;;12;10.85;;;;;;;15.14;75.87305;95168.9;;;;
2021/09/10 00:10:55;;;;;;;12;10.85;;;;;;;15.14;75.87305;95168.9;;;;
2021/09/10 00:11:55;;;;;;;12;10.85;;;;;;;15.14;75.87305;95168.9;;;;
2021/09/10 00:12:56;;;;;;;12;10.85;;;;;;;15.14;75.87305;95168.9;;;;
2021/09/10 00:13:56;;;;;;;12.45;11.25;;;;;;;14.98;76.52637;95171.67;;;;
2021/09/10 00:14:57;;;;;;;12.45;11.25;;;;;;;14.98;76.52637;95171.67;;;;
2021/09/10 00:15:58;;;;;;;12.45;11.25;;;;;;;14.98;76.52637;95171.67;;;;
2021/09/10 00:16:58;;;;;;;12.45;11.25;;;;;;;14.98;76.52637;95171.67;;;;
2021/09/10 00:17:59;;;;;;;12.45;11.25;;;;;;;14.98;76.52637;95171.67;;;;
2021/09/10 00:18:59;;;;;;;12.45;11.25;;;;;;;14.98;76.52637;95171.67;;;;
2021/09/10 00:20:00;;;;;;;12.45;11.25;;;;;;;14.98;76.52637;95171.67;;;;
2021/09/10 00:21:01;;;;;;;12.45;11.25;;;;;;;14.98;76.52637;95171.67;;;;
2021/09/10 00:22:01;;;;;;;12.45;11.25;;;;;;;14.98;76.52637;95171.67;;;;
2021/09/10 00:23:02;;;;;;;12.45;11.25;;;;;;;14.98;76.52637;95171.67;;;;
2021/09/10 00:24:03;;;;;;;12.45;11.25;;;;;;;14.98;76.52637;95171.67;;;;
2021/09/10 00:25:04;;;;;;;12.1;10.95;;;;;;;14.77;77.03906;95177.31;;;;
2021/09/10 00:26:05;;;;;;;12.1;10.95;;;;;;;14.77;77.03906;95177.31;;;;
2021/09/10 00:27:06;;;;;;;12.1;10.95;;;;;;;14.77;77.03906;95177.31;;;;
2021/09/10 00:28:06;;;;;;;12.1;10.95;;;;;;;14.77;77.03906;95177.31;;;;
2021/09/10 00:29:07;;;;;;;12.1;10.95;;;;;;;14.77;77.03906;95177.31;;;;
2021/09/10 00:30:07;;;;;;;12.1;10.95;;;;;;;14.77;77.03906;95177.31;;;;
2021/09/10 00:31:09;;;;;;;12.1;10.95;;;;;;;14.77;77.03906;95177.31;;;;
2021/09/10 00:32:10;;;;;;;12.1;10.95;;;;;;;14.77;77.03906;95177.31;;;;
2021/09/10 00:33:10;;;;;;;12.1;10.95;;;;;;;14.77;77.03906;95177.31;;;;
2021/09/10 00:34:11;;;;;;;12.1;10.95;;;;;;;14.77;77.03906;95177.31;;;;
2021/09/10 00:35:11;;;;;;;13.35;12.05;;;;;;;14.66;77.5166;95158.36;;;;
2021/09/10 00:36:12;;;;;;;13.35;12.05;;;;;;;14.66;77.5166;95158.36;;;;
2021/09/10 00:37:12;;;;;;;13.35;12.05;;;;;;;14.66;77.5166;95158.36;;;;
2021/09/10 00:38:13;;;;;;;13.35;12.05;;;;;;;14.66;77.5166;95158.36;;;;
2021/09/10 00:39:13;;;;;;;13.35;12.05;;;;;;;14.66;77.5166;95158.36;;;;
2021/09/10 00:40:14;;;;;;;13.35;12.05;;;;;;;14.66;77.5166;95158.36;;;;
2021/09/10 00:41:15;;;;;;;13.35;12.05;;;;;;;14.66;77.5166;95158.36;;;;
2021/09/10 00:42:16;;;;;;;13.35;12.05;;;;;;;14.66;77.5166;95158.36;;;;
2021/09/10 00:43:16;;;;;;;13.35;12.05;;;;;;;14.66;77.5166;95158.36;;;;
2021/09/10 00:44:17;;;;;;;13.35;12.05;;;;;;;14.66;77.5166;95158.36;;;;
2021/09/10 00:45:18;;;;;;;13.35;12.05;;;;;;;14.66;77.5166;95158.36;;;;
2021/09/10 00:46:18;;;;;;;13.35;12.05;;;;;;;14.66;77.5166;95158.36;;;;
2021/09/10 00:47:19;;;;;;;13.35;12.05;;;;;;;14.66;77.5166;95158.36;;;;
2021/09/10 00:48:20;;;;;;;13.35;12.05;;;;;;;14.66;77.5166;95158.36;;;;
2021/09/10 00:49:20;;;;;;;13.35;12.05;;;;;;;14.66;77.5166;95158.36;;;;
2021/09/10 00:50:21;;;;;;;13.35;12.05;;;;;;;14.66;77.5166;95158.36;;;;
2021/09/10 00:51:22;;;;;;;13.35;12.05;;;;;;;14.66;77.5166;95158.36;;;;
2021/09/10 00:52:23;;;;;;;13.35;12.05;;;;;;;14.66;77.5166;95158.36;;;;
2021/09/10 00:53:24;;;;;;;13.35;12.05;;;;;;;14.66;77.5166;95158.36;;;;
2021/09/10 00:54:24;;;;;;;13.35;12.05;;;;;;;14.66;77.5166;95158.36;;;;
2021/09/10 00:55:25;;;;;;;13.35;12.05;;;;;;;14.66;77.5166;95158.36;;;;
2021/09/10 00:56:26;;;;;;;13.35;12.05;;;;;;;14.66;77.5166;95158.36;;;;
2021/09/10 00:57:26;;;;;;;13.35;12.05;;;;;;;14.66;77.5166;95158.36;;;;
2021/09/10 00:58:28;;;;;;;13.35;12.05;;;;;;;14.66;77.5166;95158.36;;;;
2021/09/10 00:59:28;;;;;;;13.35;12.05;;;;;;;14.66;77.5166;95158.36;;;;
2021/09/10 01:00:29;;;;;;;13.35;12.05;;;;;;;14.66;77.5166;95158.36;;;;
2021/09/10 01:01:29;;;;;;;13.35;12.05;;;;;;;14.66;77.5166;95158.36;;;;
2021/09/10 01:02:31;;;;;;;13.35;12.05;;;;;;;14.66;77.5166;95158.36;;;;
2021/09/10 01:03:31;;;;;;;13.35;12.05;;;;;;;14.66;77.5166;95158.36;;;;
2021/09/10 01:04:32;;;;;;;13.35;12.05;;;;;;;14.66;77.5166;95158.36;;;;
2021/09/10 01:05:33;;;;;;;13.35;12.05;;;;;;;14.66;77.5166;95158.36;;;;
2021/09/10 01:06:34;;;;;;;13.35;12.05;;;;;;;14.66;77.5166;95158.36;;;;
2021/09/10 01:07:35;;;;;;;12.55;11.25;;;;;;;14.35;79.0459;95180.58;;;;
2021/09/10 01:08:36;;;;;;;12.55;11.25;;;;;;;14.35;79.0459;95180.58;;;;
2021/09/10 01:09:39;;;;;;;12.55;11.25;;;;;;;14.35;79.0459;95180.58;;;;
2021/09/10 01:10:40;;;;;;;12.55;11.25;;;;;;;14.35;79.0459;95180.58;;;;
2021/09/10 01:11:41;;;;;;;12.55;11.25;;;;;;;14.35;79.0459;95180.58;;;;
2021/09/10 01:12:42;;;;;;;12.55;11.25;;;;;;;14.35;79.0459;95180.58;;;;
2021/09/10 01:13:43;;;;;;;12.55;11.25;;;;;;;14.35;79.0459;95180.58;;;;
2021/09/10 01:14:45;;;;;;;12.55;11.25;;;;;;;14.35;79.0459;95180.58;;;;
2021/09/10 01:15:46;;;;;;;12.55;11.25;;;;;;;14.35;79.0459;95180.58;;;;
2021/09/10 01:16:47;;;;;;;12.55;11.25;;;;;;;14.35;79.0459;95180.58;;;;
2021/09/10 01:17:48;;;;;;;12.55;11.25;;;;;;;14.35;79.0459;95180.58;;;;
2021/09/10 01:18:49;;;;;;;12.2;10.95;;;;;;;14.23;79.56445;95177.62;;;;
2021/09/10 01:19:49;;;;;;;12.2;10.95;;;;;;;14.23;79.56445;95177.62;;;;
2021/09/10 01:20:50;;;;;;;12.2;10.95;;;;;;;14.23;79.56445;95177.62;;;;
2021/09/10 01:21:50;;;;;;;12.2;10.95;;;;;;;14.23;79.56445;95177.62;;;;
2021/09/10 01:22:52;;;;;;;12.2;10.95;;;;;;;14.23;79.56445;95177.62;;;;
2021/09/10 01:23:53;;;;;;;12.2;10.95;;;;;;;14.23;79.56445;95177.62;;;;
2021/09/10 01:24:53;;;;;;;12.2;10.95;;;;;;;14.23;79.56445;95177.62;;;;
2021/09/10 01:26:11;;;;;;;12.2;10.95;;;;;;;14.23;79.56445;95177.62;;;;
2021/09/10 01:27:12;;;;;;;12.2;10.95;;;;;;;14.23;79.56445;95177.62;;;;
2021/09/10 01:28:12;;;;;;;12.2;10.95;;;;;;;14.23;79.56445;95177.62;;;;
2021/09/10 01:29:13;;;;;;;12.6;11.4;;;;;;;14.21;79.85254;95183.86;;;;
2021/09/10 01:30:14;;;;;;;12.6;11.4;;;;;;;14.21;79.85254;95183.86;;;;
2021/09/10 01:31:16;;;;;;;12.6;11.4;;;;;;;14.21;79.85254;95183.86;;;;
2021/09/10 01:32:17;;;;;;;12.6;11.4;;;;;;;14.21;79.85254;95183.86;;;;
2021/09/10 01:33:18;;;;;;;12.6;11.4;;;;;;;14.21;79.85254;95183.86;;;;
2021/09/10 01:34:20;;;;;;;12.6;11.4;;;;;;;14.21;79.85254;95183.86;;;;
2021/09/10 01:35:21;;;;;;;12.6;11.4;;;;;;;14.21;79.85254;95183.86;;;;
2021/09/10 01:36:21;;;;;;;12.6;11.4;;;;;;;14.21;79.85254;95183.86;;;;
2021/09/10 01:37:22;;;;;;;12.6;11.4;;;;;;;14.21;79.85254;95183.86;;;;
2021/09/10 01:38:24;;;;;;;12.6;11.4;;;;;;;14.21;79.85254;95183.86;;;;
2021/09/10 01:39:25;;;;;;;12.1;11;;;;;;;14.18;80.14746;95189.78;;;;
2021/09/10 01:40:25;;;;;;;12.1;11;;;;;;;14.18;80.14746;95189.78;;;;
2021/09/10 01:41:26;;;;;;;12.1;11;;;;;;;14.18;80.14746;95189.78;;;;
2021/09/10 01:42:27;;;;;;;12.1;11;;;;;;;14.18;80.14746;95189.78;;;;
2021/09/10 01:43:28;;;;;;;12.1;11;;;;;;;14.18;80.14746;95189.78;;;;
2021/09/10 01:44:28;;;;;;;12.1;11;;;;;;;14.18;80.14746;95189.78;;;;
2021/09/10 01:45:29;;;;;;;12.1;11;;;;;;;14.18;80.14746;95189.78;;;;
2021/09/10 01:46:29;;;;;;;12.1;11;;;;;;;14.18;80.14746;95189.78;;;;
2021/09/10 01:47:31;;;;;;;12.1;11;;;;;;;14.18;80.14746;95189.78;;;;
2021/09/10 01:48:33;;;;;;;12.1;11;;;;;;;14.18;80.14746;95189.78;;;;
2021/09/10 01:49:33;;;;;;;12.1;11;;;;;;;14.18;80.14746;95189.78;;;;
2021/09/10 01:50:34;;;;;;;12;10.7;;;;;;;14.24;80.43945;95193.66;;;;
2021/09/10 01:51:34;;;;;;;12;10.7;;;;;;;14.24;80.43945;95193.66;;;;
2021/09/10 01:52:35;;;;;;;12;10.7;;;;;;;14.24;80.43945;95193.66;;;;
2021/09/10 01:53:35;;;;;;;12;10.7;;;;;;;14.24;80.43945;95193.66;;;;
2021/09/10 01:54:36;;;;;;;12;10.7;;;;;;;14.24;80.43945;95193.66;;;;
2021/09/10 01:55:37;;;;;;;12;10.7;;;;;;;14.24;80.43945;95193.66;;;;
2021/09/10 01:56:38;;;;;;;12;10.7;;;;;;;14.24;80.43945;95193.66;;;;
2021/09/10 01:57:38;;;;;;;12;10.7;;;;;;;14.24;80.43945;95193.66;;;;
2021/09/10 01:58:40;;;;;;;12;10.7;;;;;;;14.24;80.43945;95193.66;;;;
2021/09/10 01:59:43;;;;;;;12;10.7;;;;;;;14.24;80.43945;95193.66;;;;
2021/09/10 02:00:44;;;;;;;11.55;10.5;;;;;;;14.2;80.66895;95189.81;;;;
2021/09/10 02:01:44;;;;;;;11.55;10.5;;;;;;;14.2;80.66895;95189.81;;;;
2021/09/10 02:02:45;;;;;;;11.55;10.5;;;;;;;14.2;80.66895;95189.81;;;;
2021/09/10 02:03:45;;;;;;;11.55;10.5;;;;;;;14.2;80.66895;95189.81;;;;
2021/09/10 02:04:46;;;;;;;11.55;10.5;;;;;;;14.2;80.66895;95189.81;;;;
2021/09/10 02:05:47;;;;;;;11.55;10.5;;;;;;;14.2;80.66895;95189.81;;;;
2021/09/10 02:06:47;;;;;;;11.55;10.5;;;;;;;14.2;80.66895;95189.81;;;;
2021/09/10 02:07:48;;;;;;;11.55;10.5;;;;;;;14.2;80.66895;95189.81;;;;
2021/09/10 02:08:48;;;;;;;11.55;10.5;;;;;;;14.2;80.66895;95189.81;;;;
2021/09/10 02:09:49;;;;;;;11.55;10.5;;;;;;;14.2;80.66895;95189.81;;;;
2021/09/10 02:10:50;;;;;;;11.55;10.5;;;;;;;14.2;80.66895;95189.81;;;;
2021/09/10 02:11:50;;;;;;;12.1;10.85;;;;;;;14.22;81.2002;95194.98;;;;
2021/09/10 02:12:51;;;;;;;12.1;10.85;;;;;;;14.22;81.2002;95194.98;;;;
2021/09/10 02:13:51;;;;;;;12.1;10.85;;;;;;;14.22;81.2002;95194.98;;;;
2021/09/10 02:14:53;;;;;;;12.1;10.85;;;;;;;14.22;81.2002;95194.98;;;;
2021/09/10 02:15:54;;;;;;;12.1;10.85;;;;;;;14.22;81.2002;95194.98;;;;
2021/09/10 02:16:54;;;;;;;12.1;10.85;;;;;;;14.22;81.2002;95194.98;;;;
2021/09/10 02:17:55;;;;;;;12.1;10.85;;;;;;;14.22;81.2002;95194.98;;;;
2021/09/10 02:18:55;;;;;;;12.1;10.85;;;;;;;14.22;81.2002;95194.98;;;;
2021/09/10 02:19:57;;;;;;;12.1;10.85;;;;;;;14.22;81.2002;95194.98;;;;
2021/09/10 02:20:57;;;;;;;12.1;10.85;;;;;;;14.22;81.2002;95194.98;;;;
2021/09/10 02:21:58;;;;;;;12.05;10.95;;;;;;;14.26;81.37012;95187.45;;;;
2021/09/10 02:22:59;;;;;;;12.05;10.95;;;;;;;14.26;81.37012;95187.45;;;;
2021/09/10 02:23:59;;;;;;;12.05;10.95;;;;;;;14.26;81.37012;95187.45;;;;
2021/09/10 02:25:00;;;;;;;12.05;10.95;;;;;;;14.26;81.37012;95187.45;;;;
2021/09/10 02:26:00;;;;;;;12.05;10.95;;;;;;;14.26;81.37012;95187.45;;;;
2021/09/10 02:27:01;;;;;;;12.05;10.95;;;;;;;14.26;81.37012;95187.45;;;;
2021/09/10 02:28:02;;;;;;;12.05;10.95;;;;;;;14.26;81.37012;95187.45;;;;
2021/09/10 02:29:02;;;;;;;12.05;10.95;;;;;;;14.26;81.37012;95187.45;;;;
2021/09/10 02:30:03;;;;;;;12.05;10.95;;;;;;;14.26;81.37012;95187.45;;;;
2021/09/10 02:31:05;;;;;;;12.05;10.95;;;;;;;14.26;81.37012;95187.45;;;;
2021/09/10 02:32:05;;;;;;;12.05;10.95;;;;;;;14.26;81.37012;95187.45;;;;
2021/09/10 02:33:06;;;;;;;11.7;10.65;;;;;;;14.17;81.53613;95181.78;;;;
2021/09/10 02:34:07;;;;;;;11.7;10.65;;;;;;;14.17;81.53613;95181.78;;;;
2021/09/10 02:35:08;;;;;;;11.7;10.65;;;;;;;14.17;81.53613;95181.78;;;;
2021/09/10 02:36:09;;;;;;;11.7;10.65;;;;;;;14.17;81.53613;95181.78;;;;
2021/09/10 02:37:10;;;;;;;11.7;10.65;;;;;;;14.17;81.53613;95181.78;;;;
2021/09/10 02:38:11;;;;;;;11.7;10.65;;;;;;;14.17;81.53613;95181.78;;;;
2021/09/10 02:39:12;;;;;;;11.7;10.65;;;;;;;14.17;81.53613;95181.78;;;;
2021/09/10 02:40:13;;;;;;;11.7;10.65;;;;;;;14.17;81.53613;95181.78;;;;
2021/09/10 02:41:13;;;;;;;11.7;10.65;;;;;;;14.17;81.53613;95181.78;;;;
2021/09/10 02:42:14;;;;;;;11.7;10.65;;;;;;;14.17;81.53613;95181.78;;;;
2021/09/10 02:43:15;;;;;;;12.45;11.25;;;;;;;14.05;81.9873;95171.62;;;;
2021/09/10 02:44:16;;;;;;;12.45;11.25;;;;;;;14.05;81.9873;95171.62;;;;
2021/09/10 02:45:16;;;;;;;12.45;11.25;;;;;;;14.05;81.9873;95171.62;;;;
2021/09/10 02:46:17;;;;;;;12.45;11.25;;;;;;;14.05;81.9873;95171.62;;;;
2021/09/10 02:47:18;;;;;;;12.45;11.25;;;;;;;14.05;81.9873;95171.62;;;;
2021/09/10 02:48:18;;;;;;;12.45;11.25;;;;;;;14.05;81.9873;95171.62;;;;
2021/09/10 02:49:18;;;;;;;12.45;11.25;;;;;;;14.05;81.9873;95171.62;;;;
2021/09/10 02:50:19;;;;;;;12.45;11.25;;;;;;;14.05;81.9873;95171.62;;;;
2021/09/10 02:51:20;;;;;;;12.45;11.25;;;;;;;14.05;81.9873;95171.62;;;;
2021/09/10 02:52:20;;;;;;;12.45;11.25;;;;;;;14.05;81.9873;95171.62;;;;
2021/09/10 02:53:21;;;;;;;12.45;11.25;;;;;;;14.05;81.9873;95171.62;;;;
2021/09/10 02:54:21;;;;;;;12.8;11.55;;;;;;;14.08;82.31543;95177.91;;;;
2021/09/10 02:55:22;;;;;;;12.8;11.55;;;;;;;14.08;82.31543;95177.91;;;;
2021/09/10 02:56:22;;;;;;;12.8;11.55;;;;;;;14.08;82.31543;95177.91;;;;
2021/09/10 02:57:23;;;;;;;12.8;11.55;;;;;;;14.08;82.31543;95177.91;;;;
2021/09/10 02:58:23;;;;;;;12.8;11.55;;;;;;;14.08;82.31543;95177.91;;;;
2021/09/10 02:59:24;;;;;;;12.8;11.55;;;;;;;14.08;82.31543;95177.91;;;;
2021/09/10 03:00:24;;;;;;;12.8;11.55;;;;;;;14.08;82.31543;95177.91;;;;
2021/09/10 03:01:25;;;;;;;12.8;11.55;;;;;;;14.08;82.31543;95177.91;;;;
2021/09/10 03:02:25;;;;;;;12.8;11.55;;;;;;;14.08;82.31543;95177.91;;;;
2021/09/10 03:03:26;;;;;;;12.8;11.55;;;;;;;14.08;82.31543;95177.91;;;;
2021/09/10 03:04:27;;;;;;;12.8;11.55;;;;;;;14.08;82.31543;95177.91;;;;
2021/09/10 03:05:29;;;;;;;13.15;11.95;;;;;;;14.03;82.73633;95181.54;;;;
2021/09/10 03:06:29;;;;;;;13.15;11.95;;;;;;;14.03;82.73633;95181.54;;;;
2021/09/10 03:07:30;;;;;;;13.15;11.95;;;;;;;14.03;82.73633;95181.54;;;;
2021/09/10 03:08:30;;;;;;;13.15;11.95;;;;;;;14.03;82.73633;95181.54;;;;
2021/09/10 03:09:31;;;;;;;13.15;11.95;;;;;;;14.03;82.73633;95181.54;;;;
2021/09/10 03:10:31;;;;;;;13.15;11.95;;;;;;;14.03;82.73633;95181.54;;;;
2021/09/10 03:11:32;;;;;;;13.15;11.95;;;;;;;14.03;82.73633;95181.54;;;;
2021/09/10 03:12:33;;;;;;;13.15;11.95;;;;;;;14.03;82.73633;95181.54;;;;
2021/09/10 03:13:35;;;;;;;13.15;11.95;;;;;;;14.03;82.73633;95181.54;;;;
2021/09/10 03:14:36;;;;;;;13.15;11.95;;;;;;;14.03;82.73633;95181.54;;;;
2021/09/10 03:15:36;;;;;;;13.55;12.25;;;;;;;14.02;83.13086;95178.53;;;;
2021/09/10 03:16:37;;;;;;;13.55;12.25;;;;;;;14.02;83.13086;95178.53;;;;
2021/09/10 03:17:38;;;;;;;13.55;12.25;;;;;;;14.02;83.13086;95178.53;;;;
2021/09/10 03:18:38;;;;;;;13.55;12.25;;;;;;;14.02;83.13086;95178.53;;;;
2021/09/10 03:19:39;;;;;;;13.55;12.25;;;;;;;14.02;83.13086;95178.53;;;;
2021/09/10 03:20:40;;;;;;;13.55;12.25;;;;;;;14.02;83.13086;95178.53;;;;
2021/09/10 03:21:41;;;;;;;13.55;12.25;;;;;;;14.02;83.13086;95178.53;;;;
2021/09/10 03:22:41;;;;;;;13.55;12.25;;;;;;;14.02;83.13086;95178.53;;;;
2021/09/10 03:23:42;;;;;;;13.55;12.25;;;;;;;14.02;83.13086;95178.53;;;;
2021/09/10 03:24:42;;;;;;;13.55;12.25;;;;;;;14.02;83.13086;95178.53;;;;
2021/09/10 03:25:43;;;;;;;13.55;12.25;;;;;;;14.02;83.13086;95178.53;;;;
2021/09/10 03:26:43;;;;;;;13.3;11.95;;;;;;;13.93;83.53418;95167.33;;;;
2021/09/10 03:27:44;;;;;;;13.3;11.95;;;;;;;13.93;83.53418;95167.33;;;;
2021/09/10 03:28:45;;;;;;;13.3;11.95;;;;;;;13.93;83.53418;95167.33;;;;
2021/09/10 03:29:45;;;;;;;13.3;11.95;;;;;;;13.93;83.53418;95167.33;;;;
2021/09/10 03:30:45;;;;;;;13.3;11.95;;;;;;;13.93;83.53418;95167.33;;;;
2021/09/10 03:31:46;;;;;;;13.3;11.95;;;;;;;13.93;83.53418;95167.33;;;;
2021/09/10 03:32:46;;;;;;;13.3;11.95;;;;;;;13.93;83.53418;95167.33;;;;
2021/09/10 03:33:48;;;;;;;13.3;11.95;;;;;;;13.93;83.53418;95167.33;;;;
2021/09/10 03:34:48;;;;;;;13.3;11.95;;;;;;;13.93;83.53418;95167.33;;;;
2021/09/10 03:35:50;;;;;;;13.3;11.95;;;;;;;13.93;83.53418;95167.33;;;;
2021/09/10 03:36:50;;;;;;;12.8;11.6;;;;;;;13.85;83.85352;95170.12;;;;
2021/09/10 03:37:51;;;;;;;12.8;11.6;;;;;;;13.85;83.85352;95170.12;;;;
2021/09/10 03:38:51;;;;;;;12.8;11.6;;;;;;;13.85;83.85352;95170.12;;;;
2021/09/10 03:39:52;;;;;;;12.8;11.6;;;;;;;13.85;83.85352;95170.12;;;;
2021/09/10 03:40:52;;;;;;;12.8;11.6;;;;;;;13.85;83.85352;95170.12;;;;
2021/09/10 03:41:53;;;;;;;12.8;11.6;;;;;;;13.85;83.85352;95170.12;;;;
2021/09/10 03:42:53;;;;;;;12.8;11.6;;;;;;;13.85;83.85352;95170.12;;;;
2021/09/10 03:43:54;;;;;;;12.8;11.6;;;;;;;13.85;83.85352;95170.12;;;;
2021/09/10 03:44:54;;;;;;;12.8;11.6;;;;;;;13.85;83.85352;95170.12;;;;
2021/09/10 03:45:55;;;;;;;12.8;11.6;;;;;;;13.85;83.85352;95170.12;;;;
2021/09/10 03:46:55;;;;;;;12.8;11.6;;;;;;;13.85;83.85352;95170.12;;;;
2021/09/10 03:47:56;;;;;;;13.05;11.8;;;;;;;13.66;84.19238;95163.84;;;;
2021/09/10 03:48:56;;;;;;;13.05;11.8;;;;;;;13.66;84.19238;95163.84;;;;
2021/09/10 03:49:57;;;;;;;13.05;11.8;;;;;;;13.66;84.19238;95163.84;;;;
2021/09/10 03:50:57;;;;;;;13.05;11.8;;;;;;;13.66;84.19238;95163.84;;;;
2021/09/10 03:51:58;;;;;;;13.05;11.8;;;;;;;13.66;84.19238;95163.84;;;;
2021/09/10 03:52:58;;;;;;;13.05;11.8;;;;;;;13.66;84.19238;95163.84;;;;
2021/09/10 03:53:59;;;;;;;13.05;11.8;;;;;;;13.66;84.19238;95163.84;;;;
2021/09/10 03:54:59;;;;;;;13.05;11.8;;;;;;;13.66;84.19238;95163.84;;;;
2021/09/10 03:55:59;;;;;;;13.05;11.8;;;;;;;13.66;84.19238;95163.84;;;;
2021/09/10 03:57:00;;;;;;;13.05;11.8;;;;;;;13.66;84.19238;95163.84;;;;
2021/09/10 03:58:00;;;;;;;13.35;12.05;;;;;;;13.57;84.59668;95160.79;;;;
2021/09/10 03:59:01;;;;;;;13.35;12.05;;;;;;;13.57;84.59668;95160.79;;;;
2021/09/10 04:00:01;;;;;;;13.35;12.05;;;;;;;13.57;84.59668;95160.79;;;;
2021/09/10 04:01:03;;;;;;;13.35;12.05;;;;;;;13.57;84.59668;95160.79;;;;
2021/09/10 04:02:03;;;;;;;13.35;12.05;;;;;;;13.57;84.59668;95160.79;;;;
2021/09/10 04:03:04;;;;;;;13.35;12.05;;;;;;;13.57;84.59668;95160.79;;;;
2021/09/10 04:04:05;;;;;;;13.35;12.05;;;;;;;13.57;84.59668;95160.79;;;;
2021/09/10 04:05:05;;;;;;;13.35;12.05;;;;;;;13.57;84.59668;95160.79;;;;
2021/09/10 04:06:08;;;;;;;13.35;12.05;;;;;;;13.57;84.59668;95160.79;;;;
2021/09/10 04:07:09;;;;;;;13.35;12.05;;;;;;;13.57;84.59668;95160.79;;;;
2021/09/10 04:08:10;;;;;;;13.35;12.05;;;;;;;13.57;84.59668;95160.79;;;;
2021/09/10 04:09:10;;;;;;;14;12.6;;;;;;;13.43;84.94336;95155.1;;;;
2021/09/10 04:10:11;;;;;;;14;12.6;;;;;;;13.43;84.94336;95155.1;;;;
2021/09/10 04:11:11;;;;;;;14;12.6;;;;;;;13.43;84.94336;95155.1;;;;
2021/09/10 04:12:12;;;;;;;14;12.6;;;;;;;13.43;84.94336;95155.1;;;;
2021/09/10 04:13:12;;;;;;;14;12.6;;;;;;;13.43;84.94336;95155.1;;;;
2021/09/10 04:14:13;;;;;;;14;12.6;;;;;;;13.43;84.94336;95155.1;;;;
2021/09/10 04:15:13;;;;;;;14;12.6;;;;;;;13.43;84.94336;95155.1;;;;
2021/09/10 04:16:14;;;;;;;14;12.6;;;;;;;13.43;84.94336;95155.1;;;;
2021/09/10 04:17:14;;;;;;;14;12.6;;;;;;;13.43;84.94336;95155.1;;;;
2021/09/10 04:18:14;;;;;;;14;12.6;;;;;;;13.43;84.94336;95155.1;;;;
2021/09/10 04:19:15;;;;;;;14.65;12.95;;;;;;;13.36;85.2832;95150.95;;;;
2021/09/10 04:20:15;;;;;;;14.65;12.95;;;;;;;13.36;85.2832;95150.95;;;;
2021/09/10 04:21:16;;;;;;;14.65;12.95;;;;;;;13.36;85.2832;95150.95;;;;
2021/09/10 04:22:16;;;;;;;14.65;12.95;;;;;;;13.36;85.2832;95150.95;;;;
2021/09/10 04:23:17;;;;;;;14.65;12.95;;;;;;;13.36;85.2832;95150.95;;;;
2021/09/10 04:24:18;;;;;;;14.65;12.95;;;;;;;13.36;85.2832;95150.95;;;;
2021/09/10 04:25:19;;;;;;;14.65;12.95;;;;;;;13.36;85.2832;95150.95;;;;
2021/09/10 04:26:20;;;;;;;14.65;12.95;;;;;;;13.36;85.2832;95150.95;;;;
2021/09/10 04:27:21;;;;;;;14.65;12.95;;;;;;;13.36;85.2832;95150.95;;;;
2021/09/10 04:28:21;;;;;;;14.65;12.95;;;;;;;13.36;85.2832;95150.95;;;;
2021/09/10 04:29:22;;;;;;;14.65;12.95;;;;;;;13.36;85.2832;95150.95;;;;
2021/09/10 04:30:22;;;;;;;14.25;12.75;;;;;;;13.25;85.68164;95157.22;;;;
2021/09/10 04:31:23;;;;;;;14.25;12.75;;;;;;;13.25;85.68164;95157.22;;;;
2021/09/10 04:32:23;;;;;;;14.25;12.75;;;;;;;13.25;85.68164;95157.22;;;;
2021/09/10 04:33:24;;;;;;;14.25;12.75;;;;;;;13.25;85.68164;95157.22;;;;
2021/09/10 04:34:24;;;;;;;14.25;12.75;;;;;;;13.25;85.68164;95157.22;;;;
2021/09/10 04:35:25;;;;;;;14.25;12.75;;;;;;;13.25;85.68164;95157.22;;;;
2021/09/10 04:36:25;;;;;;;14.25;12.75;;;;;;;13.25;85.68164;95157.22;;;;
2021/09/10 04:37:26;;;;;;;14.25;12.75;;;;;;;13.25;85.68164;95157.22;;;;
2021/09/10 04:38:26;;;;;;;14.25;12.75;;;;;;;13.25;85.68164;95157.22;;;;
2021/09/10 04:39:27;;;;;;;14.25;12.75;;;;;;;13.25;85.68164;95157.22;;;;
2021/09/10 04:40:27;;;;;;;14.25;12.75;;;;;;;13.25;85.68164;95157.22;;;;
2021/09/10 04:41:28;;;;;;;13.95;12.5;;;;;;;13.24;85.99121;95157.06;;;;
2021/09/10 04:42:29;;;;;;;13.95;12.5;;;;;;;13.24;85.99121;95157.06;;;;
2021/09/10 04:43:29;;;;;;;13.95;12.5;;;;;;;13.24;85.99121;95157.06;;;;
2021/09/10 04:44:30;;;;;;;13.95;12.5;;;;;;;13.24;85.99121;95157.06;;;;
2021/09/10 04:45:30;;;;;;;13.95;12.5;;;;;;;13.24;85.99121;95157.06;;;;
2021/09/10 04:46:31;;;;;;;13.95;12.5;;;;;;;13.24;85.99121;95157.06;;;;
2021/09/10 04:47:31;;;;;;;13.95;12.5;;;;;;;13.24;85.99121;95157.06;;;;
2021/09/10 04:48:32;;;;;;;13.95;12.5;;;;;;;13.24;85.99121;95157.06;;;;
2021/09/10 04:49:32;;;;;;;13.95;12.5;;;;;;;13.24;85.99121;95157.06;;;;
2021/09/10 04:50:33;;;;;;;13.95;12.5;;;;;;;13.24;85.99121;95157.06;;;;
2021/09/10 04:51:33;;;;;;;14.25;12.85;;;;;;;13.16;86.27441;95164.28;;;;
2021/09/10 04:52:34;;;;;;;14.25;12.85;;;;;;;13.16;86.27441;95164.28;;;;
2021/09/10 04:53:36;;;;;;;14.25;12.85;;;;;;;13.16;86.27441;95164.28;;;;
2021/09/10 04:54:36;;;;;;;14.25;12.85;;;;;;;13.16;86.27441;95164.28;;;;
2021/09/10 04:55:38;;;;;;;14.25;12.85;;;;;;;13.16;86.27441;95164.28;;;;
2021/09/10 04:56:39;;;;;;;14.25;12.85;;;;;;;13.16;86.27441;95164.28;;;;
2021/09/10 04:57:39;;;;;;;14.25;12.85;;;;;;;13.16;86.27441;95164.28;;;;
2021/09/10 04:58:40;;;;;;;14.25;12.85;;;;;;;13.16;86.27441;95164.28;;;;
2021/09/10 04:59:41;;;;;;;14.25;12.85;;;;;;;13.16;86.27441;95164.28;;;;
2021/09/10 05:00:41;;;;;;;14.25;12.85;;;;;;;13.16;86.27441;95164.28;;;;
2021/09/10 05:01:42;;;;;;;14.25;12.85;;;;;;;13.16;86.27441;95164.28;;;;
2021/09/10 05:02:42;;;;;;;13.9;12.5;;;;;;;13.13;86.77344;95162.09;;;;
2021/09/10 05:03:43;;;;;;;13.9;12.5;;;;;;;13.13;86.77344;95162.09;;;;
2021/09/10 05:04:43;;;;;;;13.9;12.5;;;;;;;13.13;86.77344;95162.09;;;;
2021/09/10 05:05:44;;;;;;;13.9;12.5;;;;;;;13.13;86.77344;95162.09;;;;
2021/09/10 05:06:44;;;;;;;13.9;12.5;;;;;;;13.13;86.77344;95162.09;;;;
2021/09/10 05:07:44;;;;;;;13.9;12.5;;;;;;;13.13;86.77344;95162.09;;;;
2021/09/10 05:08:45;;;;;;;13.9;12.5;;;;;;;13.13;86.77344;95162.09;;;;
2021/09/10 05:09:45;;;;;;;13.9;12.5;;;;;;;13.13;86.77344;95162.09;;;;
2021/09/10 05:10:46;;;;;;;13.9;12.5;;;;;;;13.13;86.77344;95162.09;;;;
2021/09/10 05:11:46;;;;;;;13.9;12.5;;;;;;;13.13;86.77344;95162.09;;;;
2021/09/10 05:12:47;;;;;;;14.8;13.4;;;;;;;13.22;87.07031;95159.06;;;;
2021/09/10 05:13:48;;;;;;;14.8;13.4;;;;;;;13.22;87.07031;95159.06;;;;
2021/09/10 05:14:51;;;;;;;14.8;13.4;;;;;;;13.22;87.07031;95159.06;;;;
2021/09/10 05:15:52;;;;;;;14.8;13.4;;;;;;;13.22;87.07031;95159.06;;;;
2021/09/10 05:16:52;;;;;;;14.8;13.4;;;;;;;13.22;87.07031;95159.06;;;;
2021/09/10 05:17:53;;;;;;;14.8;13.4;;;;;;;13.22;87.07031;95159.06;;;;
2021/09/10 05:18:53;;;;;;;14.8;13.4;;;;;;;13.22;87.07031;95159.06;;;;
2021/09/10 05:19:54;;;;;;;14.8;13.4;;;;;;;13.22;87.07031;95159.06;;;;
2021/09/10 05:20:54;;;;;;;14.8;13.4;;;;;;;13.22;87.07031;95159.06;;;;
2021/09/10 05:21:55;;;;;;;14.8;13.4;;;;;;;13.22;87.07031;95159.06;;;;
2021/09/10 05:22:55;;;;;;;14.8;13.4;;;;;;;13.22;87.07031;95159.06;;;;
2021/09/10 05:23:56;;;;;;;13.85;12.55;;;;;;;13.5;87.10352;95169.8;;;;
2021/09/10 05:24:56;;;;;;;13.85;12.55;;;;;;;13.5;87.10352;95169.8;;;;
2021/09/10 05:25:57;;;;;;;13.85;12.55;;;;;;;13.5;87.10352;95169.8;;;;
2021/09/10 05:26:58;;;;;;;13.85;12.55;;;;;;;13.5;87.10352;95169.8;;;;
2021/09/10 05:27:58;;;;;;;13.85;12.55;;;;;;;13.5;87.10352;95169.8;;;;
2021/09/10 05:28:58;;;;;;;13.85;12.55;;;;;;;13.5;87.10352;95169.8;;;;
2021/09/10 05:29:59;;;;;;;13.85;12.55;;;;;;;13.5;87.10352;95169.8;;;;
2021/09/10 05:30:59;;;;;;;13.85;12.55;;;;;;;13.5;87.10352;95169.8;;;;
2021/09/10 05:32:00;;;;;;;13.85;12.55;;;;;;;13.5;87.10352;95169.8;;;;
2021/09/10 05:33:00;;;;;;;13.85;12.55;;;;;;;13.5;87.10352;95169.8;;;;
2021/09/10 05:34:01;;;;;;;13.25;11.95;;;;;;;13.7;87.03516;95174.06;;;;
2021/09/10 05:35:01;;;;;;;13.25;11.95;;;;;;;13.7;87.03516;95174.06;;;;
2021/09/10 05:36:02;;;;;;;13.25;11.95;;;;;;;13.7;87.03516;95174.06;;;;
2021/09/10 05:37:05;;;;;;;13.25;11.95;;;;;;;13.7;87.03516;95174.06;;;;
2021/09/10 05:38:05;;;;;;;13.25;11.95;;;;;;;13.7;87.03516;95174.06;;;;
2021/09/10 05:39:06;;;;;;;13.25;11.95;;;;;;;13.7;87.03516;95174.06;;;;
2021/09/10 05:40:06;;;;;;;13.25;11.95;;;;;;;13.7;87.03516;95174.06;;;;